Aérodrome :
LOGIN :

S'inscrire | Disclaimer

   EN    FR    IT 

 










Légende :    VFR   VFR Marginal   IFR   IFR Intensif   IFR Très Intensif
Visi : 
Plafond : 
>= 8 km
>= 3000ft
5 à 8 km
1000 à 3000 ft
1500m à 5 km
500 à 1000 ft
800 à 1500m
200 à 500 ft
< 800m
< 200 ft
Symboles :   Orages  Brouillard  Fortes neiges  Fortes précipitations  Vent > 20 kt
SIGMETs :   Divers  Orages  Givrage  Turbulence  Onde Orograph.  Cendres Volcan.







- Altitude de l'aérodrome : 499 ft
- Code IATA : TLS
- Voir les cartes d'approche


LFBO - Toulouse / Blagnac

DERNIER METAR :
  • 211800Z AUTO 34009KT 9999 FEW044 19/10 Q1017 NOSIG

METARs EXPIRÉS :
  • 211730Z AUTO 31012KT 9999 FEW044 20/10 Q1017 NOSIG
  • 211700Z AUTO 31010KT 280V350 9999 FEW044 20/10 Q1017 NOSIG
  • 211630Z AUTO 33009KT 310V010 9999 FEW044 21/10 Q1017 NOSIG
  • 211600Z AUTO 33010KT 9999 FEW045 21/10 Q1017 NOSIG
  • 211530Z AUTO 34008KT 270V030 9999 BKN045 21/11 Q1017 NOSIG

TAF TAF LFBO
Valide du 21 à 18h jusqu'au 23 à 00h UTC


211700Z 2118/2224 31010KT 9999 FEW040
BECMG 2120/2122 VRB02KT
PROB30
TEMPO 2203/2208 4000 BR SCT001
TEMPO 2212/2216 36010KT
ATIS : +33 5 62 74 66 36
Pas de NOTAMs connus pour ce terrain.



MET'MAP, la Météo Aéronautique d'un coup d'oeil ! - Copyright ORBIFLY Décembre 2007 - Disclaimer

ORBIFLY MET'MAP TEAM :

Programmation & Développement : Alexandra Zaïnal
Conception & Développement : Baudouin d'Aumeries
Co-Programmation & Développement : Marc-Olivier Méhu
Soutien technique & logistique : Manuel Goepfert

Contact : metmap@orbifly.com




SOURCES & CREDITS :

   NOAA